Time;durP1;ratioP1;P1;durP2;ratioP2;P2;SDS_P1;SDS_P2;PMS_P1;PMS_P2;Temp;Humidity;BMP_temperature;BMP_pressure;BME280_temperature;BME280_humidity;BME280_pressure;Samples;Min_cycle;Max_cycle;Signal;HPM_P1;HPM_P2
2022/08/30 00:01:27;;;;;;;2.80;1.35;;;18.80;83.80;;;;;;5030077;28;20070;-57
2022/08/30 00:03:57;;;;;;;2.47;1.13;;;18.80;83.80;;;;;;5030030;28;20389;-61
2022/08/30 00:06:23;;;;;;;;;;;18.70;84.00;;;;;;5031041;28;20017;-57
2022/08/30 00:08:49;;;;;;;2.95;1.48;;;18.60;84.00;;;;;;5018216;28;20300;-57
2022/08/30 00:11:18;;;;;;;3.40;1.17;;;18.60;84.50;;;;;;5030046;28;20385;-57
2022/08/30 00:13:46;;;;;;;2.45;1.30;;;18.60;84.50;;;;;;5030447;28;20021;-56
2022/08/30 00:16:12;;;;;;;1.98;0.90;;;18.60;84.40;;;;;;5030261;28;20041;-57
2022/08/30 00:18:38;;;;;;;3.67;1.40;;;18.60;84.40;;;;;;5027341;28;20021;-57
2022/08/30 00:21:05;;;;;;;3.78;1.33;;;18.60;84.50;;;;;;5029939;28;20512;-57
2022/08/30 00:23:31;;;;;;;3.53;1.50;;;18.60;84.70;;;;;;5029690;28;20017;-57
2022/08/30 00:25:57;;;;;;;2.50;1.10;;;18.50;84.80;;;;;;5029490;28;20040;-57
2022/08/30 00:28:22;;;;;;;1.52;1.00;;;18.50;85.00;;;;;;5029062;28;20022;-57
2022/08/30 00:30:49;;;;;;;2.25;1.13;;;18.50;85.30;;;;;;5030572;28;20041;-57
2022/08/30 00:33:15;;;;;;;1.75;1.00;;;18.50;85.20;;;;;;5029131;28;20022;-57
2022/08/30 00:35:42;;;;;;;2.92;1.23;;;18.40;85.40;;;;;;5029424;28;20136;-57
2022/08/30 00:38:09;;;;;;;2.67;1.30;;;18.40;85.40;;;;;;5029554;28;20041;-57
2022/08/30 00:40:35;;;;;;;3.38;1.48;;;18.40;85.60;;;;;;5029036;28;20481;-57
2022/08/30 00:43:05;;;;;;;4.45;1.30;;;18.30;85.90;;;;;;5027909;28;20030;-57
2022/08/30 00:45:34;;;;;;;3.10;1.52;;;18.30;86.00;;;;;;5028522;28;20424;-58
2022/08/30 00:48:00;;;;;;;3.78;1.67;;;18.30;86.30;;;;;;5027544;28;20025;-57
2022/08/30 00:50:40;;;;;;;1.80;1.17;;;18.20;86.60;;;;;;5029661;28;20029;-57
2022/08/30 00:53:09;;;;;;;2.13;1.33;;;18.20;86.60;;;;;;5027859;28;20037;-57
2022/08/30 00:55:35;;;;;;;3.83;1.60;;;18.20;87.10;;;;;;5027468;28;20083;-57
2022/08/30 00:58:04;;;;;;;3.00;1.42;;;18.20;87.20;;;;;;5028957;28;20022;-57
2022/08/30 01:00:30;;;;;;;2.92;1.67;;;18.20;87.30;;;;;;5029242;28;20473;-57
2022/08/30 01:02:56;;;;;;;2.75;1.38;;;18.10;87.60;;;;;;5028667;28;20030;-57
2022/08/30 01:05:22;;;;;;;4.30;1.83;;;18.10;87.80;;;;;;5028653;28;20053;-57
2022/08/30 01:07:48;;;;;;;2.85;1.70;;;18.10;88.00;;;;;;5029332;28;20029;-57
2022/08/30 01:10:15;;;;;;;3.15;1.85;;;18.10;88.10;;;;;;5029169;28;20473;-57
2022/08/30 01:12:43;;;;;;;3.92;1.88;;;18.00;88.40;;;;;;5028908;28;20116;-57
2022/08/30 01:15:13;;;;;;;2.83;1.58;;;18.00;88.70;;;;;;5028804;28;20083;-57
2022/08/30 01:17:40;;;;;;;;;;;17.90;88.90;;;;;;5026685;28;20397;-57
2022/08/30 01:20:13;;;;;;;3.38;1.42;;;17.90;89.10;;;;;;5028745;28;20422;-57
2022/08/30 01:22:48;;;;;;;2.78;1.50;;;17.80;89.60;;;;;;5026940;28;20025;-57
2022/08/30 01:25:21;;;;;;;3.80;1.67;;;17.90;89.70;;;;;;5028656;28;20136;-57
2022/08/30 01:28:02;;;;;;;2.67;2.08;;;17.80;89.80;;;;;;5024978;28;20030;-57
2022/08/30 01:30:29;;;;;;;3.80;2.00;;;17.80;90.10;;;;;;5028349;28;20493;-57
2022/08/30 01:33:00;;;;;;;3.17;2.08;;;17.80;90.40;;;;;;5027242;28;20021;-58
2022/08/30 01:35:40;;;;;;;3.60;1.90;;;17.80;90.40;;;;;;5028534;28;20036;-57
2022/08/30 01:38:05;;;;;;;2.50;1.70;;;17.70;90.50;;;;;;5027126;28;20481;-57
2022/08/30 01:40:31;;;;;;;3.17;1.95;;;17.70;90.70;;;;;;5028823;28;20072;-57
2022/08/30 01:42:56;;;;;;;4.63;2.20;;;17.70;90.70;;;;;;5028415;28;20486;-57
2022/08/30 01:45:22;;;;;;;3.08;1.88;;;17.70;90.90;;;;;;5028634;28;20064;-57
2022/08/30 01:47:49;;;;;;;2.85;2.20;;;17.70;91.00;;;;;;5028613;28;20504;-57
2022/08/30 01:50:15;;;;;;;4.30;2.03;;;17.70;91.10;;;;;;5028353;28;20018;-57
2022/08/30 01:52:41;;;;;;;3.85;2.28;;;17.70;91.10;;;;;;5011790;28;20036;-57
2022/08/30 01:55:07;;;;;;;3.03;2.13;;;17.60;91.10;;;;;;5028318;28;20390;-57
2022/08/30 01:57:33;;;;;;;3.72;2.30;;;17.60;91.20;;;;;;5029772;28;20030;-57
2022/08/30 01:59:58;;;;;;;3.78;2.50;;;17.60;91.30;;;;;;5023273;28;20026;-57
2022/08/30 02:02:28;;;;;;;3.92;2.55;;;17.50;91.50;;;;;;5032388;28;20481;-57
2022/08/30 02:04:54;;;;;;;2.55;2.03;;;17.50;91.60;;;;;;5032410;28;20041;-57
2022/08/30 02:07:22;;;;;;;4.07;2.53;;;17.50;91.60;;;;;;5032227;28;20076;-57
2022/08/30 02:09:48;;;;;;;3.78;2.53;;;17.50;91.70;;;;;;5032249;28;20516;-57
2022/08/30 02:12:14;;;;;;;3.42;2.85;;;17.50;91.80;;;;;;5032163;28;20029;-57
2022/08/30 02:14:40;;;;;;;3.78;2.92;;;17.50;91.90;;;;;;5032350;28;20049;-57
2022/08/30 02:17:07;;;;;;;3.47;2.90;;;17.40;92.00;;;;;;5032210;28;20022;-57
2022/08/30 02:19:33;;;;;;;3.97;3.03;;;17.40;92.10;;;;;;5032013;28;20433;-57
2022/08/30 02:21:59;;;;;;;4.18;3.22;;;17.40;92.20;;;;;;5029224;28;20493;-57
2022/08/30 02:24:25;;;;;;;6.00;3.58;;;17.30;92.30;;;;;;5032196;28;20029;-57
2022/08/30 02:26:52;;;;;;;5.10;3.53;;;17.30;92.40;;;;;;5031806;28;20104;-57
2022/08/30 02:29:19;;;;;;;4.70;3.53;;;17.30;92.50;;;;;;5031681;28;20049;-57
2022/08/30 02:31:45;;;;;;;5.45;3.42;;;17.30;92.60;;;;;;5031608;28;20147;-57
2022/08/30 02:34:10;;;;;;;5.03;3.60;;;17.30;92.60;;;;;;5031943;28;20485;-57
2022/08/30 02:36:38;;;;;;;3.75;3.20;;;17.30;92.70;;;;;;5031342;28;20028;-57
2022/08/30 02:39:04;;;;;;;3.17;2.85;;;17.20;92.70;;;;;;5031721;28;20032;-58
2022/08/30 02:41:29;;;;;;;3.65;3.28;;;17.20;92.80;;;;;;5031657;28;20018;-58
2022/08/30 02:43:58;;;;;;;5.07;3.72;;;17.20;92.80;;;;;;5030219;28;20025;-57
2022/08/30 02:46:23;;;;;;;4.32;3.58;;;17.20;92.80;;;;;;5031367;28;20091;-57
2022/08/30 02:48:49;;;;;;;5.68;4.28;;;17.10;92.90;;;;;;5032025;28;20420;-56
2022/08/30 02:51:14;;;;;;;4.65;3.75;;;17.10;93.10;;;;;;5031477;28;20048;-57
2022/08/30 02:53:42;;;;;;;4.32;3.83;;;17.10;93.10;;;;;;5031318;28;20046;-57
2022/08/30 02:56:08;;;;;;;3.55;3.25;;;17.10;93.30;;;;;;5031215;28;20044;-57
2022/08/30 02:58:34;;;;;;;5.25;3.45;;;17.10;93.30;;;;;;5031317;28;20116;-57
2022/08/30 03:01:00;;;;;;;4.38;3.33;;;17.00;93.30;;;;;;5031271;28;20160;-57
2022/08/30 03:03:26;;;;;;;3.38;3.08;;;17.00;93.40;;;;;;5031840;28;20025;-57
2022/08/30 03:05:51;;;;;;;4.00;3.60;;;17.00;93.40;;;;;;5031414;28;20021;-57
2022/08/30 03:08:17;;;;;;;4.68;4.13;;;17.00;93.40;;;;;;5030853;28;20025;-57
2022/08/30 03:10:42;;;;;;;5.22;3.92;;;16.90;93.50;;;;;;5030692;28;20500;-57
2022/08/30 03:13:08;;;;;;;4.25;3.75;;;16.90;93.60;;;;;;5031359;28;20094;-57
2022/08/30 03:15:35;;;;;;;4.38;3.90;;;16.90;93.60;;;;;;5030686;28;20037;-56
2022/08/30 03:18:01;;;;;;;5.47;4.05;;;16.90;93.70;;;;;;5028850;28;20038;-57
2022/08/30 03:20:27;;;;;;;4.75;4.10;;;16.80;93.70;;;;;;5031297;28;20036;-57
2022/08/30 03:22:52;;;;;;;4.30;3.90;;;16.80;93.90;;;;;;5030978;28;20029;-57
2022/08/30 03:25:21;;;;;;;5.45;4.07;;;16.80;93.90;;;;;;5031010;28;20057;-57
2022/08/30 03:27:49;;;;;;;5.43;4.28;;;16.80;94.00;;;;;;5031024;28;20025;-58
2022/08/30 03:30:16;;;;;;;5.40;4.30;;;16.70;94.00;;;;;;5030370;28;20049;-57
2022/08/30 03:32:42;;;;;;;5.13;4.60;;;16.70;94.10;;;;;;5029534;28;20029;-56
2022/08/30 03:35:08;;;;;;;4.65;4.15;;;16.70;94.20;;;;;;5030363;28;20034;-56
2022/08/30 03:37:35;;;;;;;5.20;4.40;;;16.70;94.30;;;;;;5020648;28;20222;-56
2022/08/30 03:40:02;;;;;;;5.78;4.68;;;16.60;94.40;;;;;;5028920;28;20025;-57
2022/08/30 03:42:28;;;;;;;5.55;4.82;;;16.60;94.40;;;;;;5030517;28;20104;-57
2022/08/30 03:44:54;;;;;;;5.28;4.78;;;16.60;94.50;;;;;;5030801;28;20183;-56
2022/08/30 03:47:20;;;;;;;5.88;4.80;;;16.50;94.60;;;;;;5030465;28;20486;-57
2022/08/30 03:49:45;;;;;;;6.75;5.30;;;16.60;94.70;;;;;;5030444;28;20154;-57
2022/08/30 03:52:11;;;;;;;6.78;4.60;;;16.50;94.80;;;;;;5030595;28;20512;-57
2022/08/30 03:54:37;;;;;;;6.32;5.47;;;16.50;94.80;;;;;;5029941;28;20075;-57
2022/08/30 03:57:05;;;;;;;5.82;5.05;;;16.50;94.90;;;;;;5030360;28;20056;-57
2022/08/30 03:59:31;;;;;;;7.07;5.45;;;16.50;94.90;;;;;;5030119;28;20086;-57
2022/08/30 04:01:57;;;;;;;6.40;5.65;;;16.40;95.00;;;;;;5030292;28;20112;-57
2022/08/30 04:04:23;;;;;;;5.88;4.72;;;16.40;95.10;;;;;;5030013;28;20022;-57
2022/08/30 04:06:49;;;;;;;7.63;5.03;;;16.40;95.00;;;;;;5030138;28;20535;-57
2022/08/30 04:09:15;;;;;;;6.95;6.25;;;16.50;95.00;;;;;;5029828;28;20112;-57
2022/08/30 04:11:41;;;;;;;6.50;5.90;;;16.40;95.10;;;;;;5030135;28;20477;-57
2022/08/30 04:14:06;;;;;;;7.18;5.95;;;16.40;95.20;;;;;;5029908;28;20025;-57
2022/08/30 04:16:32;;;;;;;6.78;5.50;;;16.40;95.30;;;;;;5029782;28;20021;-57
2022/08/30 04:18:57;;;;;;;7.40;6.65;;;16.40;95.40;;;;;;5029461;28;20026;-57
2022/08/30 04:21:23;;;;;;;5.88;5.22;;;16.40;95.40;;;;;;5028846;28;20580;-57
2022/08/30 04:23:48;;;;;;;6.65;5.97;;;16.40;95.50;;;;;;5029635;28;20107;-57
2022/08/30 04:26:14;;;;;;;5.80;5.20;;;16.30;95.50;;;;;;5029718;28;20527;-57
2022/08/30 04:28:39;;;;;;;5.03;4.53;;;16.30;95.50;;;;;;5027235;28;20045;-57
2022/08/30 04:31:16;;;;;;;8.45;6.25;;;16.30;95.50;;;;;;5029839;28;20034;-57
2022/08/30 04:33:43;;;;;;;5.93;5.32;;;16.30;95.60;;;;;;5029506;28;20029;-57
2022/08/30 04:36:09;;;;;;;7.00;5.45;;;16.30;95.70;;;;;;5029271;28;20040;-57
2022/08/30 04:38:36;;;;;;;5.32;4.80;;;16.30;95.80;;;;;;5043603;28;20512;-56
2022/08/30 04:41:07;;;;;;;6.13;5.53;;;16.30;95.80;;;;;;5029105;28;20401;-57
2022/08/30 04:43:33;;;;;;;5.85;4.88;;;16.30;95.80;;;;;;5029586;28;20025;-57
2022/08/30 04:45:58;;;;;;;5.78;5.18;;;16.30;95.80;;;;;;5029091;28;20028;-57
2022/08/30 04:48:24;;;;;;;6.43;5.57;;;16.30;95.80;;;;;;5029357;28;20075;-56
2022/08/30 04:50:49;;;;;;;6.10;5.40;;;16.30;95.80;;;;;;5029227;28;20028;-57
2022/08/30 04:53:15;;;;;;;5.40;4.68;;;16.30;95.90;;;;;;5029059;28;20044;-57
2022/08/30 04:55:42;;;;;;;4.95;4.40;;;16.20;95.90;;;;;;5030327;28;20033;-57
2022/08/30 04:58:08;;;;;;;5.18;4.68;;;16.30;95.90;;;;;;5030691;28;20430;-57
2022/08/30 05:00:36;;;;;;;5.68;5.18;;;16.30;95.90;;;;;;5032256;28;20556;-57
2022/08/30 05:03:02;;;;;;;6.57;5.40;;;16.30;96.00;;;;;;5032286;28;20075;-57
2022/08/30 05:05:39;;;;;;;7.40;4.95;;;16.30;96.00;;;;;;5031977;28;20033;-57
2022/08/30 05:08:16;;;;;;;6.68;5.85;;;16.20;96.00;;;;;;5025569;28;20033;-57
2022/08/30 05:10:45;;;;;;;6.03;4.95;;;16.20;96.10;;;;;;5032037;28;20026;-57
2022/08/30 05:13:11;;;;;;;5.82;5.13;;;16.20;96.10;;;;;;5032308;28;20486;-56
2022/08/30 05:15:38;;;;;;;6.03;5.43;;;16.20;96.10;;;;;;5032438;28;20021;-57
2022/08/30 05:18:04;;;;;;;6.13;5.07;;;16.20;96.20;;;;;;5032324;28;20135;-57
2022/08/30 05:20:30;;;;;;;5.40;4.90;;;16.20;96.30;;;;;;5031177;28;20112;-57
2022/08/30 05:22:55;;;;;;;4.88;4.07;;;16.30;96.30;;;;;;5031032;28;20037;-57
2022/08/30 05:25:31;;;;;;;5.20;4.70;;;16.30;96.30;;;;;;5031834;28;20037;-56
2022/08/30 05:27:57;;;;;;;4.85;4.32;;;16.30;96.30;;;;;;5032300;28;20116;-57
2022/08/30 05:30:25;;;;;;;5.18;4.13;;;16.30;96.30;;;;;;5031894;28;20041;-57
2022/08/30 05:32:53;;;;;;;5.65;3.85;;;16.30;96.20;;;;;;5031577;28;20115;-57
2022/08/30 05:35:20;;;;;;;5.28;4.28;;;16.30;96.20;;;;;;5030851;28;20057;-58
2022/08/30 05:37:56;;;;;;;4.95;4.45;;;16.30;96.20;;;;;;5031916;28;20096;-57
2022/08/30 05:40:22;;;;;;;5.93;4.32;;;16.40;96.10;;;;;;5025590;28;20075;-57
2022/08/30 05:42:47;;;;;;;5.75;4.63;;;16.40;96.20;;;;;;5031952;28;20022;-57
2022/08/30 05:45:14;;;;;;;5.80;4.38;;;16.40;96.10;;;;;;5031309;28;20488;-57
2022/08/30 05:47:40;;;;;;;5.47;4.20;;;16.40;96.10;;;;;;5030355;28;20032;-57
2022/08/30 05:50:07;;;;;;;4.78;3.97;;;16.40;96.10;;;;;;5029463;28;20022;-57
2022/08/30 05:52:37;;;;;;;7.03;4.30;;;16.40;96.40;;;;;;5030653;28;20021;-57
2022/08/30 05:55:04;;;;;;;5.90;4.70;;;16.50;96.10;;;;;;5028449;28;20108;-57
2022/08/30 05:57:35;;;;;;;5.15;4.20;;;16.40;96.10;;;;;;5028035;28;20485;-57
2022/08/30 06:00:05;;;;;;;4.78;3.92;;;16.50;96.10;;;;;;5027698;28;20121;-57
2022/08/30 06:02:30;;;;;;;;;;;16.50;96.10;;;;;;5027676;28;20020;-57
2022/08/30 06:04:56;;;;;;;5.78;4.28;;;16.50;96.10;;;;;;5029223;28;19991;-57
2022/08/30 06:07:21;;;;;;;6.93;5.35;;;16.50;96.10;;;;;;5029751;28;20029;-57
2022/08/30 06:09:47;;;;;;;4.60;3.92;;;16.60;96.10;;;;;;5028839;28;20037;-56
2022/08/30 06:12:12;;;;;;;5.35;4.85;;;16.60;95.90;;;;;;5027464;28;20161;-57
2022/08/30 06:14:38;;;;;;;4.97;4.18;;;16.70;95.90;;;;;;5027606;28;20029;-57
2022/08/30 06:17:05;;;;;;;4.97;3.97;;;16.70;95.80;;;;;;5028567;28;20032;-57
2022/08/30 06:19:30;;;;;;;5.47;4.60;;;16.70;95.80;;;;;;5030220;28;20104;-56
2022/08/30 06:21:56;;;;;;;4.25;3.85;;;16.70;95.70;;;;;;5024636;28;20120;-57
2022/08/30 06:24:21;;;;;;;4.60;4.10;;;16.80;95.70;;;;;;5027706;28;20021;-57
2022/08/30 06:26:47;;;;;;;5.03;4.53;;;16.90;95.70;;;;;;5029793;28;20064;-57
2022/08/30 06:29:17;;;;;;;4.25;3.85;;;16.90;95.50;;;;;;5030330;28;20054;-56
2022/08/30 06:31:43;;;;;;;3.75;3.45;;;16.90;95.40;;;;;;5030337;28;20014;-55
2022/08/30 06:34:09;;;;;;;4.65;4.13;;;16.90;95.30;;;;;;5031948;28;20029;-57
2022/08/30 06:36:35;;;;;;;4.80;3.50;;;17.00;95.20;;;;;;5030980;28;20108;-57
2022/08/30 06:39:01;;;;;;;4.53;3.63;;;17.00;95.10;;;;;;5031962;28;20068;-57
2022/08/30 06:41:29;;;;;;;4.82;3.80;;;17.10;95.00;;;;;;5030873;28;20025;-57
2022/08/30 06:43:56;;;;;;;4.72;3.30;;;17.10;94.80;;;;;;5031074;28;20072;-57
2022/08/30 06:46:29;;;;;;;5.68;3.78;;;17.10;94.80;;;;;;5032357;28;20033;-57
2022/08/30 06:48:55;;;;;;;4.05;3.05;;;17.20;94.80;;;;;;5033515;28;20033;-56
2022/08/30 06:51:25;;;;;;;4.72;3.45;;;17.20;94.70;;;;;;5032487;28;20497;-58
2022/08/30 06:53:50;;;;;;;;;;;17.30;94.60;;;;;;5031934;28;20096;-57
2022/08/30 06:56:17;;;;;;;3.58;3.28;;;17.20;94.50;;;;;;5031316;28;20003;-57
2022/08/30 06:58:44;;;;;;;3.85;3.25;;;17.30;94.50;;;;;;5031877;28;20021;-57
2022/08/30 07:01:15;;;;;;;3.25;2.90;;;17.30;94.20;;;;;;5032315;28;20561;-58
2022/08/30 07:03:41;;;;;;;3.28;2.97;;;17.40;94.00;;;;;;5033549;28;20076;-57
2022/08/30 07:06:07;;;;;;;3.83;2.95;;;17.50;93.90;;;;;;5033300;28;20448;-57
2022/08/30 07:08:33;;;;;;;3.15;2.30;;;17.50;93.60;;;;;;5033257;28;20053;-57
2022/08/30 07:10:59;;;;;;;4.25;2.97;;;17.60;93.50;;;;;;5033472;28;20503;-57
2022/08/30 07:13:24;;;;;;;4.07;2.50;;;17.70;93.20;;;;;;5033388;28;20112;-57
2022/08/30 07:15:51;;;;;;;4.38;3.03;;;17.70;93.00;;;;;;5031187;28;20017;-57
2022/08/30 07:21:14;;;;;;;4.47;2.55;;;17.80;92.50;;;;;;5033671;28;20433;-57
2022/08/30 07:23:40;;;;;;;3.25;2.38;;;17.90;92.30;;;;;;5033245;28;20018;-57
2022/08/30 07:26:08;;;;;;;2.80;2.20;;;18.00;92.10;;;;;;5033484;28;20474;-57
2022/08/30 07:28:36;;;;;;;4.53;2.10;;;18.00;91.90;;;;;;5034111;28;20025;-57
2022/08/30 07:31:02;;;;;;;2.63;2.20;;;18.10;91.80;;;;;;5026969;28;20091;-57
2022/08/30 07:33:28;;;;;;;4.20;2.38;;;18.10;91.50;;;;;;5034239;28;20022;-57
2022/08/30 07:35:54;;;;;;;3.35;2.30;;;18.20;91.30;;;;;;5034407;28;20531;-57
2022/08/30 07:38:20;;;;;;;2.10;1.80;;;18.20;91.30;;;;;;5033916;28;20029;-58
2022/08/30 07:40:45;;;;;;;2.40;1.85;;;18.30;91.30;;;;;;5034369;28;20009;-58
2022/08/30 07:43:11;;;;;;;3.63;2.40;;;18.30;91.20;;;;;;5032676;28;20071;-58
2022/08/30 07:45:37;;;;;;;2.25;1.60;;;18.40;90.90;;;;;;5034007;28;20025;-58
2022/08/30 07:48:04;;;;;;;4.82;2.33;;;18.50;90.80;;;;;;5034182;28;20025;-58
2022/08/30 07:50:30;;;;;;;2.85;1.60;;;18.60;90.60;;;;;;5033222;28;20116;-57
2022/08/30 07:52:55;;;;;;;3.35;1.90;;;18.60;90.30;;;;;;5032541;28;20107;-58
2022/08/30 07:55:21;;;;;;;3.42;2.00;;;18.70;89.70;;;;;;5031975;28;20026;-58
2022/08/30 07:57:46;;;;;;;2.30;1.30;;;18.80;89.30;;;;;;5030939;28;20029;-58
2022/08/30 08:00:13;;;;;;;3.40;1.40;;;18.80;88.60;;;;;;5032500;28;20021;-58
2022/08/30 08:02:40;;;;;;;1.83;1.33;;;18.90;87.80;;;;;;5032289;28;20029;-58
2022/08/30 08:05:07;;;;;;;2.13;1.33;;;19.00;87.50;;;;;;5029779;28;20498;-58
2022/08/30 08:07:33;;;;;;;1.70;1.10;;;19.00;86.60;;;;;;5030859;28;20025;-58
2022/08/30 08:09:59;;;;;;;1.45;0.90;;;19.10;86.00;;;;;;5032492;28;20060;-58
2022/08/30 08:12:24;;;;;;;2.80;1.30;;;19.20;85.10;;;;;;5032105;28;20065;-57
2022/08/30 08:14:50;;;;;;;2.28;1.23;;;19.20;84.40;;;;;;5032168;28;20033;-58
2022/08/30 08:17:15;;;;;;;1.90;0.95;;;19.30;84.70;;;;;;5032189;28;20029;-58
2022/08/30 08:19:41;;;;;;;4.00;1.20;;;19.40;83.90;;;;;;5030624;28;20071;-58
2022/08/30 08:22:07;;;;;;;1.48;0.98;;;19.50;83.70;;;;;;5031941;28;20017;-58
2022/08/30 08:24:33;;;;;;;2.15;1.02;;;19.60;83.20;;;;;;5032121;28;20382;-58
2022/08/30 08:26:59;;;;;;;2.22;1.00;;;19.70;82.70;;;;;;5030600;28;20041;-57
2022/08/30 08:29:26;;;;;;;4.43;1.10;;;19.80;82.10;;;;;;5031600;28;20041;-58
2022/08/30 08:31:52;;;;;;;4.07;1.15;;;19.90;81.80;;;;;;5032009;28;20020;-57
2022/08/30 08:34:22;;;;;;;2.55;1.10;;;20.00;81.40;;;;;;5031624;28;20025;-58
2022/08/30 08:36:48;;;;;;;2.53;1.10;;;20.10;80.30;;;;;;5029848;28;20079;-58
2022/08/30 08:39:14;;;;;;;2.47;0.90;;;20.10;79.50;;;;;;5031734;28;20029;-57
2022/08/30 08:41:48;;;;;;;4.05;0.90;;;20.20;79.00;;;;;;5031579;28;20037;-58
2022/08/30 08:44:49;;;;;;;1.80;0.80;;;20.20;79.10;;;;;;5031620;28;20021;-58
2022/08/30 08:47:38;;;;;;;3.17;1.05;;;20.40;79.30;;;;;;5020178;28;20043;-57
2022/08/30 08:50:13;;;;;;;1.52;0.95;;;20.50;79.20;;;;;;5030187;28;20543;-57
2022/08/30 08:55:28;;;;;;;3.25;0.80;;;20.70;77.60;;;;;;5028909;28;20083;-58
2022/08/30 08:57:55;;;;;;;2.53;0.80;;;20.70;76.70;;;;;;5031436;28;20604;-57
2022/08/30 09:00:23;;;;;;;2.13;0.88;;;20.80;76.70;;;;;;5030772;28;20034;-58
2022/08/30 09:02:57;;;;;;;1.85;0.90;;;20.90;76.60;;;;;;5031191;28;20048;-58
2022/08/30 09:05:26;;;;;;;2.05;0.80;;;21.00;76.70;;;;;;5031589;28;20104;-58
2022/08/30 09:07:59;;;;;;;3.97;0.97;;;21.10;76.40;;;;;;5032074;28;20497;-58
2022/08/30 09:10:26;;;;;;;1.88;0.85;;;21.20;75.50;;;;;;5032489;28;20760;-57
2022/08/30 09:12:52;;;;;;;2.00;0.80;;;21.30;75.10;;;;;;5026103;28;20108;-58
2022/08/30 09:15:27;;;;;;;1.52;0.77;;;21.40;73.70;;;;;;5030699;28;20096;-58
2022/08/30 09:17:56;;;;;;;1.75;0.80;;;21.50;73.30;;;;;;5032601;28;20024;-58
2022/08/30 09:20:33;;;;;;;2.03;1.00;;;21.50;73.20;;;;;;5032619;28;20029;-58
2022/08/30 09:23:20;;;;;;;1.60;0.60;;;21.60;72.40;;;;;;5032770;28;20030;-58
2022/08/30 09:25:55;;;;;;;2.67;1.00;;;21.70;72.70;;;;;;5025387;28;20025;-58
2022/08/30 09:28:34;;;;;;;5.10;0.93;;;21.90;72.40;;;;;;5031999;28;20033;-58
2022/08/30 09:31:21;;;;;;;2.40;0.88;;;21.90;71.80;;;;;;5032488;28;20099;-58
2022/08/30 09:34:04;;;;;;;1.63;0.70;;;22.00;71.20;;;;;;5024289;28;20021;-58
2022/08/30 09:36:34;;;;;;;1.58;0.82;;;22.20;70.50;;;;;;5031018;28;20026;-57
2022/08/30 09:39:03;;;;;;;2.90;0.70;;;22.20;69.90;;;;;;5026689;28;20513;-58
2022/08/30 09:41:39;;;;;;;1.83;0.80;;;22.30;69.10;;;;;;5030730;28;20503;-57
2022/08/30 09:44:14;;;;;;;3.45;1.00;;;22.40;68.60;;;;;;5030791;28;20068;-58
2022/08/30 09:47:03;;;;;;;2.00;0.90;;;22.50;68.70;;;;;;5029734;28;20030;-58
2022/08/30 09:49:35;;;;;;;1.75;0.70;;;22.50;68.40;;;;;;5028087;28;20450;-57
2022/08/30 09:52:23;;;;;;;2.40;0.75;;;22.60;67.90;;;;;;5029144;28;20108;-58
2022/08/30 09:55:26;;;;;;;1.33;0.60;;;22.70;67.70;;;;;;5028126;28;20026;-59
2022/08/30 09:57:52;;;;;;;1.90;0.80;;;22.90;67.60;;;;;;5029845;28;20341;-58
2022/08/30 10:00:21;;;;;;;3.00;1.00;;;23.00;66.90;;;;;;5030593;28;20546;-56
2022/08/30 10:03:10;;;;;;;3.20;1.00;;;23.10;66.20;;;;;;5030755;28;20036;-58
2022/08/30 10:05:53;;;;;;;1.20;0.70;;;23.20;66.40;;;;;;5030678;28;20021;-58
2022/08/30 10:08:18;;;;;;;2.25;0.70;;;23.30;65.30;;;;;;5028072;28;20026;-57
2022/08/30 10:10:51;;;;;;;1.73;0.63;;;23.40;65.00;;;;;;5030596;28;20366;-58
2022/08/30 10:13:41;;;;;;;1.83;0.60;;;23.50;64.50;;;;;;5027899;28;20485;-58
2022/08/30 10:16:14;;;;;;;1.25;0.65;;;23.70;64.40;;;;;;5030535;28;20068;-58
2022/08/30 10:19:17;;;;;;;2.47;0.80;;;23.90;62.60;;;;;;5028345;28;20551;-58
2022/08/30 10:21:51;;;;;;;2.53;0.63;;;24.00;61.80;;;;;;5034601;28;20021;-59
2022/08/30 10:24:25;;;;;;;2.13;1.00;;;24.20;61.00;;;;;;5034108;28;20025;-58
2022/08/30 10:26:56;;;;;;;2.75;0.90;;;24.30;60.60;;;;;;5034013;28;20021;-58
2022/08/30 10:29:28;;;;;;;1.30;0.50;;;24.40;59.80;;;;;;5034086;28;20076;-58
2022/08/30 10:32:00;;;;;;;1.85;0.60;;;24.50;59.00;;;;;;5033957;28;20021;-58
2022/08/30 10:34:38;;;;;;;1.80;0.73;;;24.70;59.00;;;;;;5034336;28;20381;-58
2022/08/30 10:37:13;;;;;;;1.20;0.65;;;24.80;58.30;;;;;;5032649;28;20022;-58
2022/08/30 10:39:49;;;;;;;1.90;0.70;;;24.90;57.80;;;;;;5032890;28;20458;-58
2022/08/30 10:42:17;;;;;;;2.38;1.17;;;25.10;57.60;;;;;;5035596;28;20071;-58
2022/08/30 10:44:51;;;;;;;6.32;0.90;;;25.30;56.50;;;;;;5020743;28;20068;-58
2022/08/30 10:47:43;;;;;;;1.33;0.75;;;25.40;56.60;;;;;;5035109;28;20029;-58
2022/08/30 10:50:13;;;;;;;1.27;0.60;;;25.70;56.50;;;;;;5025996;28;20022;-59
2022/08/30 10:53:17;;;;;;;2.05;0.60;;;26.00;55.50;;;;;;5035256;28;20072;-58
2022/08/30 10:55:57;;;;;;;1.58;0.68;;;26.30;54.60;;;;;;5034977;28;20485;-58
2022/08/30 10:58:23;;;;;;;1.85;0.75;;;26.80;54.60;;;;;;5022349;28;20568;-58
2022/08/30 11:01:09;;;;;;;2.05;0.80;;;27.10;54.30;;;;;;5034895;28;20100;-58
2022/08/30 11:03:56;;;;;;;1.48;0.90;;;27.60;52.70;;;;;;5034122;28;20033;-58
2022/08/30 11:06:59;;;;;;;2.08;0.60;;;28.50;52.40;;;;;;5033395;28;20052;-59
2022/08/30 11:09:55;;;;;;;1.48;0.60;;;29.80;51.30;;;;;;5031524;28;20057;-58
2022/08/30 11:12:32;;;;;;;0.90;0.50;;;31.00;48.50;;;;;;5033183;28;20108;-58
2022/08/30 11:14:59;;;;;;;1.27;0.60;;;31.90;46.00;;;;;;5033501;28;20037;-59
2022/08/30 11:17:27;;;;;;;2.58;1.00;;;32.40;44.70;;;;;;5033060;28;20035;-59
2022/08/30 11:19:58;;;;;;;2.05;0.80;;;32.10;44.00;;;;;;5033400;28;20097;-58
2022/08/30 11:22:28;;;;;;;2.75;0.70;;;32.10;44.00;;;;;;5032889;28;20516;-58
2022/08/30 11:25:04;;;;;;;1.25;0.60;;;32.10;44.40;;;;;;5034675;28;20075;-58
2022/08/30 11:27:41;;;;;;;3.13;1.05;;;32.20;44.20;;;;;;5028283;28;20041;-59
2022/08/30 11:30:29;;;;;;;1.00;0.60;;;32.00;43.20;;;;;;5033876;28;20417;-59
2022/08/30 11:33:08;;;;;;;1.33;0.60;;;32.60;43.80;;;;;;5034272;28;20022;-58
2022/08/30 11:35:41;;;;;;;3.08;0.90;;;33.70;43.10;;;;;;5027146;28;20552;-59
2022/08/30 11:38:30;;;;;;;2.92;0.70;;;34.40;41.70;;;;;;5031414;28;20021;-58
2022/08/30 11:40:57;;;;;;;1.20;0.70;;;34.60;40.00;;;;;;5014967;28;20493;-59
2022/08/30 11:43:35;;;;;;;2.03;0.70;;;34.80;39.70;;;;;;5033551;28;20500;-58
2022/08/30 11:46:26;;;;;;;0.98;0.60;;;35.10;39.30;;;;;;5032634;28;20095;-59
2022/08/30 11:48:53;;;;;;;1.20;0.65;;;35.80;39.10;;;;;;5032439;28;20021;-59
2022/08/30 11:51:26;;;;;;;2.13;0.70;;;36.20;38.70;;;;;;5033362;28;20033;-59
2022/08/30 11:54:25;;;;;;;1.65;1.00;;;36.30;38.00;;;;;;5025850;28;20049;-60
2022/08/30 11:57:36;;;;;;;2.30;0.70;;;36.60;38.10;;;;;;5033771;28;20103;-59
2022/08/30 12:00:08;;;;;;;1.85;0.60;;;36.90;37.70;;;;;;4971967;28;20070;-59
2022/08/30 12:02:56;;;;;;;1.23;0.80;;;36.90;36.60;;;;;;4982667;28;20026;-60
2022/08/30 12:05:37;;;;;;;1.60;0.80;;;37.20;36.70;;;;;;5018192;28;20056;-59
2022/08/30 12:08:39;;;;;;;1.00;0.73;;;37.60;36.40;;;;;;5029887;28;20053;-60
2022/08/30 12:11:11;;;;;;;1.58;0.90;;;37.50;36.40;;;;;;5009610;28;20119;-60
2022/08/30 12:13:36;;;;;;;1.95;0.90;;;37.30;35.70;;;;;;5039228;28;20028;-59
2022/08/30 12:16:33;;;;;;;2.22;0.70;;;37.00;35.80;;;;;;5036867;28;20033;-60
2022/08/30 12:19:13;;;;;;;3.25;0.93;;;37.00;36.10;;;;;;5028569;28;20033;-60
2022/08/30 12:21:39;;;;;;;1.63;0.82;;;36.80;36.10;;;;;;5040372;28;20036;-59
2022/08/30 12:24:12;;;;;;;2.33;0.80;;;36.70;36.50;;;;;;5037392;28;20025;-59
2022/08/30 12:26:41;;;;;;;4.40;1.20;;;36.80;36.30;;;;;;5034312;28;20030;-60
2022/08/30 12:29:26;;;;;;;1.75;0.73;;;36.80;36.40;;;;;;5035496;28;20045;-60
2022/08/30 12:31:55;;;;;;;2.03;0.90;;;36.80;35.90;;;;;;5039217;28;20513;-60
2022/08/30 12:34:45;;;;;;;1.27;0.80;;;36.70;36.20;;;;;;5034845;28;20030;-60
2022/08/30 12:37:32;;;;;;;1.65;0.90;;;36.70;35.50;;;;;;5035321;28;20045;-59
2022/08/30 12:40:06;;;;;;;0.80;0.70;;;36.40;35.50;;;;;;5043182;28;20410;-59
2022/08/30 12:42:54;;;;;;;1.55;0.90;;;36.30;35.60;;;;;;5030788;28;20478;-59
2022/08/30 12:45:22;;;;;;;2.45;1.08;;;36.40;35.80;;;;;;5029391;28;20056;-59
2022/08/30 12:47:56;;;;;;;1.17;0.80;;;36.60;35.50;;;;;;5032229;28;20099;-59
2022/08/30 12:50:35;;;;;;;2.40;0.77;;;36.60;35.10;;;;;;5029914;28;20029;-59
2022/08/30 12:53:05;;;;;;;2.35;0.70;;;36.50;35.40;;;;;;5031619;28;20493;-59
2022/08/30 12:55:59;;;;;;;;;;;;;;;;;;;;;
2022/08/30 12:58:46;;;;;;;2.60;1.00;;;36.50;35.50;;;;;;5044978;28;20028;-59
2022/08/30 13:01:19;;;;;;;2.45;0.88;;;36.20;35.20;;;;;;5030914;28;20024;-59
2022/08/30 13:04:18;;;;;;;0.98;0.60;;;36.10;35.90;;;;;;5042949;28;20017;-59
2022/08/30 13:06:53;;;;;;;0.80;0.70;;;36.10;35.70;;;;;;5028574;28;20017;-60
2022/08/30 13:09:37;;;;;;;1.75;0.70;;;36.00;36.00;;;;;;5027228;28;20478;-59
2022/08/30 13:12:08;;;;;;;1.10;0.70;;;35.90;36.00;;;;;;5028496;28;20465;-59